Time;durP1;ratioP1;P1;durP2;ratioP2;P2;SDS_P1;SDS_P2;PMS_P1;PMS_P2;Temp;Humidity;BMP_temperature;BMP_pressure;BME280_temperature;BME280_humidity;BME280_pressure;Samples;Min_cycle;Max_cycle;Signal;HPM_P1;HPM_P2
2022/03/22 00:01:16;;;;;;;;;55.00;44.00;;;;;10.50;27.05;100883.03;6311315;27;97523;-68
2022/03/22 00:04:20;;;;;;;;;59.75;45.00;;;;;10.51;27.02;100886.56;6300303;27;97299;-68
2022/03/22 00:07:26;;;;;;;;;64.60;48.00;;;;;10.55;26.79;100880.66;6287726;27;97968;-68
2022/03/22 00:10:31;;;;;;;;;63.00;49.00;;;;;10.61;26.61;100887.19;6287359;27;98412;-70
2022/03/22 00:13:34;;;;;;;;;63.00;48.40;;;;;10.61;26.82;100884.50;6306758;27;97050;-68
2022/03/22 00:16:38;;;;;;;;;62.60;48.40;;;;;10.63;26.71;100888.72;6288416;27;98005;-68
2022/03/22 00:20:01;;;;;;;;;61.00;48.00;;;;;10.69;26.58;100882.66;6311188;27;96631;-70
2022/03/22 00:23:05;;;;;;;;;65.00;48.00;;;;;10.67;26.64;100886.53;6289451;27;98618;-70
2022/03/22 00:26:09;;;;;;;;;63.50;48.00;;;;;10.66;26.29;100884.81;6274263;27;98606;-69
2022/03/22 00:29:12;;;;;;;;;62.40;47.00;;;;;10.64;26.10;100887.72;6286634;27;99661;-70
2022/03/22 00:32:17;;;;;;;;;62.00;48.00;;;;;10.24;26.42;100823.94;6291266;27;98558;-70
2022/03/22 00:35:23;;;;;;;;;62.00;48.80;;;;;10.57;26.42;100877.78;6291078;27;97378;-69
2022/03/22 00:38:27;;;;;;;;;64.00;49.00;;;;;10.53;26.60;100880.00;6272280;27;98954;-68
2022/03/22 00:41:32;;;;;;;;;62.00;48.00;;;;;10.53;26.49;100881.84;6252927;27;97564;-68
2022/03/22 00:44:37;;;;;;;;;63.50;48.00;;;;;10.41;26.52;100855.22;6258004;27;96790;-70
2022/03/22 00:47:40;;;;;;;;;63.20;48.20;;;;;10.60;26.04;100878.28;6242264;27;98228;-69
2022/03/22 00:50:47;;;;;;;;;58.60;47.00;;;;;10.61;26.23;100869.16;6258915;27;97067;-71
2022/03/22 00:53:51;;;;;;;;;61.00;47.40;;;;;10.61;26.30;100882.66;6257463;27;97732;-68
2022/03/22 00:56:56;;;;;;;;;66.00;50.00;;;;;10.59;26.39;100873.91;6275796;27;96853;-69
2022/03/22 01:00:04;;;;;;;;;66.00;50.00;;;;;10.55;26.46;100871.72;6257401;27;97589;-70
2022/03/22 01:03:09;;;;;;;;;62.00;49.00;;;;;10.57;26.45;100872.38;6248194;27;98332;-70
2022/03/22 01:06:13;;;;;;;;;62.40;48.00;;;;;10.64;26.41;100874.22;6258171;27;99700;-68
2022/03/22 01:09:17;;;;;;;;;65.00;50.00;;;;;10.63;26.50;100869.84;6254887;27;97509;-69
2022/03/22 01:12:22;;;;;;;;;63.20;47.40;;;;;10.59;26.48;100873.91;6254970;27;98406;-69
2022/03/22 01:15:32;;;;;;;;;60.80;48.00;;;;;10.54;26.49;100867.34;6241419;27;98672;-68
2022/03/22 01:18:36;;;;;;;;;65.00;49.20;;;;;10.53;26.58;100868.34;6257790;27;97059;-69
2022/03/22 01:21:39;;;;;;;;;61.60;47.80;;;;;10.49;26.66;100875.13;6248608;27;97722;-69
2022/03/22 01:24:43;;;;;;;;;62.80;48.00;;;;;10.43;26.67;100864.00;6251740;27;97474;-69
2022/03/22 01:27:49;;;;;;;;;63.60;49.40;;;;;10.34;26.92;100867.75;6261003;27;99624;-68
2022/03/22 01:30:52;;;;;;;;;66.00;50.00;;;;;10.28;26.74;100872.97;6253968;27;97939;-70
2022/03/22 01:33:55;;;;;;;;;60.50;47.00;;;;;10.19;27.05;100869.44;6233045;27;97973;-70
2022/03/22 01:36:59;;;;;;;;;62.40;48.00;;;;;10.13;27.16;100867.41;6275103;27;96841;-70
2022/03/22 01:40:03;;;;;;;;;63.00;48.60;;;;;10.06;27.16;100866.41;6272434;27;97085;-68
2022/03/22 01:43:08;;;;;;;;;62.60;49.60;;;;;10.04;27.29;100864.88;6289563;27;97087;-70
2022/03/22 01:46:13;;;;;;;;;63.80;49.00;;;;;9.99;27.35;100862.69;6273518;27;97442;-69
2022/03/22 01:49:17;;;;;;;;;64.00;49.00;;;;;9.94;27.52;100865.91;6265246;27;97385;-68
2022/03/22 01:52:22;;;;;;;;;63.50;50.00;;;;;9.91;27.35;100860.03;6287289;27;97927;-70
2022/03/22 01:55:26;;;;;;;;;64.00;48.60;;;;;9.65;27.37;100832.41;6270518;27;97996;-68
2022/03/22 01:58:31;;;;;;;;;62.67;48.00;;;;;9.83;27.40;100849.22;6264517;27;98084;-68
2022/03/22 02:08:19;;;;;;;;;62.60;47.00;;;;;9.81;27.68;100851.28;6264380;27;97315;-68
2022/03/22 02:11:23;;;;;;;;;65.00;49.00;;;;;9.77;27.55;100853.47;6280235;27;98432;-69
2022/03/22 02:14:28;;;;;;;;;66.75;50.00;;;;;9.76;27.66;100859.00;6257188;27;97282;-68
2022/03/22 02:17:31;;;;;;;;;65.40;50.00;;;;;9.69;27.76;100852.59;6284626;27;97003;-68
2022/03/22 02:20:37;;;;;;;;;65.00;49.75;;;;;9.62;27.76;100855.16;6280988;27;97565;-69
2022/03/22 02:23:49;;;;;;;;;63.60;49.60;;;;;9.58;27.95;100848.38;6269094;27;98489;-68
2022/03/22 02:26:52;;;;;;;;;66.00;50.00;;;;;9.53;28.07;100850.75;6269098;27;96816;-69
2022/03/22 02:29:56;;;;;;;;;66.60;50.00;;;;;9.52;28.10;100849.09;6259759;27;98841;-68
2022/03/22 02:33:02;;;;;;;;;64.60;50.00;;;;;9.53;28.13;100848.03;6282724;27;97149;-70
2022/03/22 02:36:05;;;;;;;;;67.25;50.00;;;;;9.52;28.12;100849.94;6278091;27;97989;-68
2022/03/22 02:39:10;;;;;;;;;64.40;49.40;;;;;9.51;28.16;100852.78;6270330;27;100324;-69
2022/03/22 02:42:13;;;;;;;;;65.00;50.50;;;;;9.46;28.37;100847.03;6261985;27;98058;-68
2022/03/22 02:45:17;;;;;;;;;64.40;51.00;;;;;9.46;28.26;100852.44;6261682;27;97477;-68
2022/03/22 02:48:20;;;;;;;;;66.00;49.80;;;;;9.50;28.26;100854.63;6265294;27;97195;-69
2022/03/22 02:51:23;;;;;;;;;61.00;49.00;;;;;9.47;28.42;100851.44;6266088;27;97166;-69
2022/03/22 02:54:28;;;;;;;;;63.60;49.00;;;;;9.47;28.27;100863.03;6272927;27;98552;-68
2022/03/22 02:57:31;;;;;;;;;66.20;50.00;;;;;9.47;28.41;100857.66;6260936;27;97180;-69
2022/03/22 03:00:35;;;;;;;;;66.80;50.00;;;;;9.49;28.39;100866.41;6261318;27;96938;-68
2022/03/22 03:03:38;;;;;;;;;65.00;50.00;;;;;9.50;28.39;100861.84;6266264;27;97488;-69
2022/03/22 03:06:41;;;;;;;;;66.00;50.60;;;;;9.44;28.40;100868.75;6263656;27;99446;-67
2022/03/22 03:09:47;;;;;;;;;66.00;50.00;;;;;9.40;28.43;100870.09;6245608;27;97280;-70
2022/03/22 03:12:59;;;;;;;;;66.75;50.50;;;;;9.21;28.59;100870.38;6258518;27;97725;-68
2022/03/22 03:16:02;;;;;;;;;64.00;49.00;;;;;9.19;28.79;100875.09;6267314;27;97888;-69
2022/03/22 03:19:05;;;;;;;;;65.80;50.00;;;;;9.12;28.94;100874.91;6286042;27;97844;-68
2022/03/22 03:22:09;;;;;;;;;66.00;50.00;;;;;9.03;29.13;100877.75;6283704;27;96848;-68
2022/03/22 03:25:14;;;;;;;;;66.80;51.00;;;;;8.97;29.06;100881.09;6267167;27;96947;-68
2022/03/22 03:28:17;;;;;;;;;62.20;48.00;;;;;8.95;29.27;100880.38;6261359;27;97775;-68
2022/03/22 03:31:22;;;;;;;;;65.00;50.00;;;;;8.93;29.47;100871.66;6266965;27;97503;-68
2022/03/22 03:34:25;;;;;;;;;62.50;49.00;;;;;8.95;29.42;100880.38;6262214;27;97438;-67
2022/03/22 03:37:30;;;;;;;;;65.00;49.00;;;;;8.89;29.62;100881.91;6232138;27;98569;-67
2022/03/22 03:43:51;;;;;;;;;62.00;49.00;;;;;8.90;29.64;100874.66;6311870;27;97055;-68
2022/03/22 03:47:07;;;;;;;;;63.60;49.00;;;;;8.85;29.88;100871.59;6296802;27;99499;-67
2022/03/22 03:50:10;;;;;;;;;63.60;48.00;;;;;8.68;29.82;100852.75;6277701;27;99862;-69
2022/03/22 03:53:14;;;;;;;;;66.00;48.50;;;;;8.86;29.96;100874.16;6306197;27;97419;-67
2022/03/22 03:56:18;;;;;;;;;62.75;48.00;;;;;8.79;30.57;100877.66;6278208;27;97277;-67
2022/03/22 03:59:22;;;;;;;;;62.00;48.00;;;;;8.77;30.54;100871.59;6293879;27;96551;-68
2022/03/22 04:02:25;;;;;;;;;64.00;50.00;;;;;8.80;30.49;100879.31;6270782;27;97714;-69
2022/03/22 04:05:29;;;;;;;;;61.00;48.00;;;;;8.72;30.75;100880.13;6285319;27;97826;-69
2022/03/22 04:08:33;;;;;;;;;62.80;48.00;;;;;8.74;30.76;100890.75;6294091;27;98371;-68
2022/03/22 04:11:38;;;;;;;;;66.00;49.60;;;;;8.79;30.45;100897.34;6292526;27;97084;-68
2022/03/22 04:14:42;;;;;;;;;64.40;49.20;;;;;8.64;30.96;100890.88;6293921;27;96565;-67
2022/03/22 04:17:45;;;;;;;;;63.80;48.00;;;;;8.49;31.48;100901.38;6312516;27;97506;-68
2022/03/22 04:20:49;;;;;;;;;61.40;49.40;;;;;8.24;31.58;100904.88;6301434;27;97023;-70
2022/03/22 04:23:53;;;;;;;;;61.00;48.00;;;;;7.97;32.00;100905.84;6284390;27;98154;-70
2022/03/22 04:32:41;;;;;;;;;61.80;47.60;;;;;7.79;32.30;100903.19;6312593;27;97056;-68
2022/03/22 04:33:42;;;;;;;;;61.25;46.25;;;;;7.68;32.76;100910.63;6301493;27;98574;-69
2022/03/22 04:36:46;;;;;;;;;62.00;47.60;;;;;7.57;32.82;100905.50;6308654;27;97252;-68
2022/03/22 04:39:49;;;;;;;;;62.20;48.00;;;;;7.35;33.01;100914.84;6263203;27;98634;-69
2022/03/22 04:42:54;;;;;;;;;61.20;48.00;;;;;7.34;33.12;100911.31;6255796;27;98805;-68
2022/03/22 04:45:57;;;;;;;;;65.00;49.40;;;;;7.38;33.21;100909.16;6254261;27;98565;-68
2022/03/22 04:49:00;;;;;;;;;63.50;49.50;;;;;7.40;33.33;100909.84;6252699;27;99496;-67
2022/03/22 04:58:48;;;;;;;;;63.20;48.00;;;;;7.37;33.43;100920.91;6259638;27;98615;-68
2022/03/22 05:01:52;;;;;;;;;63.00;47.67;;;;;7.47;33.27;100921.69;6252891;27;97226;-68
2022/03/22 05:04:55;;;;;;;;;64.40;49.00;;;;;7.54;33.39;100919.22;6243413;27;97436;-71
2022/03/22 05:07:58;;;;;;;;;65.00;49.00;;;;;7.48;33.19;100891.13;6260591;27;97312;-68
2022/03/22 05:11:02;;;;;;;;;65.60;50.00;;;;;7.73;33.05;100917.22;6258292;27;97996;-67
2022/03/22 05:14:08;;;;;;;;;68.00;50.00;;;;;7.88;32.79;100911.28;6251335;27;96824;-68
2022/03/22 05:17:12;;;;;;;;;64.00;48.00;;;;;8.06;32.81;100921.00;6243556;27;99452;-69
2022/03/22 05:20:16;;;;;;;;;61.40;48.00;;;;;8.20;32.57;100923.16;6252283;27;97472;-68
2022/03/22 05:23:19;;;;;;;;;61.00;46.50;;;;;8.39;32.49;100916.78;6257879;27;98120;-67
2022/03/22 05:26:24;;;;;;;;;66.75;49.75;;;;;8.58;31.90;100921.06;6256694;27;97007;-68
2022/03/22 05:29:28;;;;;;;;;65.60;48.00;;;;;8.72;33.13;100919.63;6271960;27;97959;-68
2022/03/22 05:32:32;;;;;;;;;62.00;48.00;;;;;9.18;34.19;100921.88;6254479;27;96833;-69
2022/03/22 05:35:35;;;;;;;;;63.80;50.00;;;;;9.54;34.27;100923.28;6249104;27;97822;-69
2022/03/22 05:38:38;;;;;;;;;64.75;50.25;;;;;9.16;30.03;100896.09;6277726;27;98534;-68
2022/03/22 05:41:41;;;;;;;;;69.00;50.00;;;;;9.23;30.27;100898.00;6294310;27;97082;-69
2022/03/22 05:44:47;;;;;;;;;67.75;51.75;;;;;9.45;30.14;100920.75;6313977;27;97497;-68
2022/03/22 05:47:52;;;;;;;;;65.60;50.00;;;;;9.60;29.89;100919.09;6276592;27;99938;-69
2022/03/22 05:50:55;;;;;;;;;67.00;51.20;;;;;9.77;29.61;100917.28;6315017;27;97089;-68
2022/03/22 05:53:59;;;;;;;;;67.00;51.60;;;;;9.92;29.44;100919.13;6313444;27;96628;-69
2022/03/22 05:57:02;;;;;;;;;67.20;51.00;;;;;10.06;29.44;100922.16;6296964;27;97026;-68
2022/03/22 06:00:09;;;;;;;;;64.20;51.00;;;;;10.17;29.26;100928.06;6282022;27;97369;-69
2022/03/22 06:03:12;;;;;;;;;68.50;51.00;;;;;10.34;29.29;100916.28;6285191;27;99709;-69
2022/03/22 06:06:15;;;;;;;;;62.60;50.00;;;;;10.54;28.84;100929.38;6315218;27;97504;-69
2022/03/22 06:09:19;;;;;;;;;68.00;51.00;;;;;10.72;28.83;100935.41;6314789;27;97454;-68
2022/03/22 06:12:24;;;;;;;;;68.25;51.75;;;;;10.97;28.38;100942.41;6297016;27;98007;-69
2022/03/22 06:15:30;;;;;;;;;69.40;52.40;;;;;11.14;27.92;100945.91;6275051;27;97870;-69
2022/03/22 06:18:33;;;;;;;;;67.40;51.00;;;;;11.25;27.87;100948.19;6274808;27;98567;-68
2022/03/22 06:21:37;;;;;;;;;68.20;52.00;;;;;11.50;27.48;100948.91;6293127;27;97072;-68
2022/03/22 06:24:40;;;;;;;;;67.00;51.00;;;;;11.58;27.33;100951.59;6279017;27;97224;-69
2022/03/22 06:27:46;;;;;;;;;71.40;53.00;;;;;11.62;27.02;100956.44;6295262;27;98198;-67
2022/03/22 06:30:51;;;;;;;;;68.00;52.00;;;;;11.77;26.99;100953.00;6294324;27;99378;-67
2022/03/22 06:33:55;;;;;;;;;66.20;51.00;;;;;11.97;26.72;100952.34;6295780;27;98671;-68
2022/03/22 06:36:58;;;;;;;;;66.00;51.00;;;;;12.23;26.58;100951.13;6279474;27;97180;-68
2022/03/22 06:40:01;;;;;;;;;68.00;52.40;;;;;12.46;26.44;100950.06;6314582;27;97425;-68
2022/03/22 06:43:06;;;;;;;;;67.00;51.00;;;;;12.70;25.96;100951.69;6295713;27;97558;-67
2022/03/22 06:46:12;;;;;;;;;66.00;50.00;;;;;12.95;25.60;100950.38;6297207;27;97557;-69
2022/03/22 06:49:15;;;;;;;;;68.00;50.00;;;;;13.15;25.45;100949.84;6314904;27;96549;-68
2022/03/22 06:52:19;;;;;;;;;65.00;50.00;;;;;13.43;25.18;100946.28;6296362;27;97298;-69
2022/03/22 06:55:23;;;;;;;;;70.00;52.00;;;;;13.69;24.86;100950.28;6314680;27;97106;-68
2022/03/22 06:58:32;;;;;;;;;66.25;51.00;;;;;14.11;25.02;100950.31;6296706;27;96933;-69
2022/03/22 07:01:38;;;;;;;;;66.00;51.40;;;;;14.37;24.35;100949.72;6314084;27;97249;-68
2022/03/22 07:04:41;;;;;;;;;64.00;48.75;;;;;14.68;23.81;100957.50;6278669;27;97492;-68
2022/03/22 07:07:45;;;;;;;;;65.50;48.00;;;;;14.96;23.16;100957.47;6295315;27;99787;-68
2022/03/22 07:11:47;;;;;;;;;63.60;49.40;;;;;15.25;23.13;100965.34;6296033;27;98248;-69
2022/03/22 07:14:11;;;;;;;;;66.50;50.00;;;;;15.56;22.24;100954.00;6314315;27;98063;-68
2022/03/22 07:17:16;;;;;;;;;65.00;48.40;;;;;16.07;22.55;100956.25;6295949;27;97000;-69
2022/03/22 07:20:24;;;;;;;;;66.80;51.00;;;;;16.52;21.56;100960.03;6314020;27;96661;-69
2022/03/22 07:23:28;;;;;;;;;64.60;50.40;;;;;16.92;21.25;100955.38;6277454;27;100181;-69
2022/03/22 07:26:31;;;;;;;;;62.60;49.00;;;;;17.51;21.00;100949.75;6314335;27;96376;-68
2022/03/22 07:29:40;;;;;;;;;65.60;50.80;;;;;18.03;20.36;100957.66;6314630;27;98168;-68
2022/03/22 07:32:46;;;;;;;;;62.80;48.00;;;;;18.62;19.72;100961.84;6294697;27;98610;-68
2022/03/22 07:35:49;;;;;;;;;68.20;51.00;;;;;19.14;19.12;100959.66;6295186;27;98268;-68
2022/03/22 07:38:52;;;;;;;;;67.00;50.80;;;;;19.54;18.46;100960.91;6313423;27;97560;-69
2022/03/22 07:41:55;;;;;;;;;66.00;51.25;;;;;19.92;18.80;100951.53;6278333;27;98444;-69
2022/03/22 07:45:01;;;;;;;;;65.20;51.00;;;;;20.38;17.73;100954.41;6314092;27;97059;-69
2022/03/22 07:48:06;;;;;;;;;63.80;50.00;;;;;20.73;17.77;100955.28;6314891;27;97491;-69
2022/03/22 07:54:30;;;;;;;;;62.60;47.00;;;;;21.51;16.39;100948.50;6313818;27;97052;-69
2022/03/22 07:57:33;;;;;;;;;59.60;46.00;;;;;21.73;16.50;100946.78;6313386;27;97381;-69
2022/03/22 08:00:38;;;;;;;;;62.00;47.00;;;;;22.16;16.24;100956.38;6293086;27;97020;-69
2022/03/22 08:03:43;;;;;;;;;60.40;46.80;;;;;22.42;15.54;100948.34;6312818;27;97544;-69
2022/03/22 08:06:47;;;;;;;;;57.00;46.00;;;;;22.91;15.65;100954.06;6313120;27;96611;-69
2022/03/22 08:09:50;;;;;;;;;61.40;46.00;;;;;23.39;15.46;100958.84;6311134;27;98471;-69
2022/03/22 08:12:54;;;;;;;;;59.20;46.00;;;;;23.81;14.85;100956.34;6313270;27;97503;-69
2022/03/22 08:15:57;;;;;;;;;56.75;45.00;;;;;24.17;14.51;100947.41;6278297;27;97371;-69
2022/03/22 08:19:03;;;;;;;;;54.60;43.60;;;;;24.35;14.23;100946.16;6276465;27;97006;-69
2022/03/22 08:22:06;;;;;;;;;56.33;45.00;;;;;24.66;14.41;100944.50;6312919;27;97240;-69
2022/03/22 08:25:10;;;;;;;;;57.00;45.00;;;;;24.96;13.94;100946.66;6313016;27;96575;-69
2022/03/22 08:28:14;;;;;;;;;57.00;46.00;;;;;25.21;14.02;100940.44;6295131;27;96540;-69
2022/03/22 08:31:17;;;;;;;;;58.75;45.75;;;;;25.11;14.28;100938.47;6290277;27;98083;-68
2022/03/22 08:34:22;;;;;;;;;58.00;45.00;;;;;25.48;14.36;100938.34;6293470;27;96663;-69
2022/03/22 08:37:25;;;;;;;;;55.00;44.00;;;;;25.99;13.80;100933.84;6293851;27;97104;-68
2022/03/22 08:40:28;;;;;;;;;56.40;45.00;;;;;26.37;13.48;100932.50;6312002;27;97438;-68
2022/03/22 08:43:32;;;;;;;;;54.60;41.60;;;;;26.74;13.22;100935.78;6312440;27;97261;-69
2022/03/22 08:46:37;;;;;;;;;53.80;42.20;;;;;26.77;12.62;100928.03;6277190;27;101177;-70
2022/03/22 08:49:41;;;;;;;;;53.00;42.00;;;;;26.56;12.54;100922.53;6312488;27;97672;-69
2022/03/22 08:52:47;;;;;;;;;54.40;43.40;;;;;26.49;12.77;100927.50;6276883;27;98362;-69
2022/03/22 08:55:51;;;;;;;;;54.20;41.60;;;;;26.80;13.08;100919.16;6294805;27;98218;-69
2022/03/22 08:58:55;;;;;;;;;54.20;43.00;;;;;26.93;12.51;100924.16;6312036;27;97077;-69
2022/03/22 09:01:58;;;;;;;;;53.00;43.00;;;;;27.19;12.74;100916.59;6312583;27;96754;-69
2022/03/22 09:08:25;;;;;;;;;55.00;44.00;;;;;28.05;11.99;100908.69;6293870;27;97161;-69
2022/03/22 09:11:28;;;;;;;;;53.80;43.00;;;;;28.38;12.44;100907.06;6292673;27;98646;-69
2022/03/22 09:14:31;;;;;;;;;53.00;42.00;;;;;28.65;11.37;100903.72;6311887;27;97467;-69
2022/03/22 09:17:34;;;;;;;;;51.60;41.00;;;;;28.61;11.23;100897.13;6275344;27;98947;-69
2022/03/22 09:20:39;;;;;;;;;51.40;42.00;;;;;28.63;12.02;100894.88;6293523;27;99580;-69
2022/03/22 09:23:43;;;;;;;;;51.00;41.00;;;;;28.70;11.39;100895.34;6292972;27;98576;-72
2022/03/22 09:26:46;;;;;;;;;51.00;41.00;;;;;28.86;11.88;100894.09;6293587;27;98032;-70
2022/03/22 09:29:50;;;;;;;;;50.00;40.00;;;;;29.21;11.75;100893.69;6293666;27;99644;-70
2022/03/22 09:32:53;;;;;;;;;50.50;41.25;;;;;29.38;11.66;100884.88;6291838;27;96695;-70
2022/03/22 09:35:58;;;;;;;;;50.00;40.00;;;;;29.63;11.40;100890.09;6293501;27;96926;-69
2022/03/22 09:39:01;;;;;;;;;49.60;40.00;;;;;29.86;11.29;100887.56;6275564;27;99082;-69
2022/03/22 09:42:06;;;;;;;;;48.80;39.80;;;;;30.07;11.08;100889.72;6312246;27;96851;-69
2022/03/22 09:45:10;;;;;;;;;50.00;40.20;;;;;30.28;10.99;100876.31;6313883;27;97007;-70
2022/03/22 09:48:14;;;;;;;;;51.40;41.40;;;;;30.36;10.37;100866.41;6292743;27;96914;-70
2022/03/22 09:54:41;;;;;;;;;49.40;41.00;;;;;30.61;10.24;100874.34;6289516;27;98050;-70
2022/03/22 09:57:44;;;;;;;;;50.00;40.00;;;;;30.37;10.83;100877.25;6272010;27;97991;-70
2022/03/22 10:00:48;;;;;;;;;52.40;42.00;;;;;30.49;10.50;100871.25;6290688;27;97478;-69
2022/03/22 10:04:00;;;;;;;;;49.60;39.60;;;;;30.80;11.10;100863.13;6290251;27;96856;-69
2022/03/22 10:07:06;;;;;;;;;52.00;41.00;;;;;31.10;10.62;100850.56;6272032;27;98880;-69
2022/03/22 10:10:10;;;;;;;;;47.40;39.60;;;;;31.31;9.79;100858.19;6290708;27;96840;-69
2022/03/22 10:13:14;;;;;;;;;47.80;39.00;;;;;31.10;10.35;100856.13;6271800;27;98521;-70
2022/03/22 10:16:18;;;;;;;;;52.00;41.00;;;;;30.70;10.42;100855.78;6302933;27;97419;-70
2022/03/22 10:19:22;;;;;;;;;49.00;39.00;;;;;30.89;10.61;100856.50;6289823;27;97434;-69
2022/03/22 10:22:28;;;;;;;;;51.00;40.60;;;;;30.72;10.78;100856.31;6289215;27;98516;-69
2022/03/22 10:25:34;;;;;;;;;50.00;39.00;;;;;30.45;10.80;100856.22;6295235;27;97607;-70
2022/03/22 10:28:48;;;;;;;;;47.00;38.00;;;;;30.33;11.49;100853.13;6315175;27;97447;-71
2022/03/22 10:31:52;;;;;;;;;49.40;40.00;;;;;30.48;10.77;100850.94;6314458;27;97622;-70
2022/03/22 10:34:56;;;;;;;;;48.00;39.00;;;;;30.66;10.71;100845.56;6292962;27;97523;-70
2022/03/22 10:38:02;;;;;;;;;48.40;39.40;;;;;30.84;10.61;100842.69;6315187;27;97519;-70
2022/03/22 10:41:09;;;;;;;;;45.80;37.00;;;;;30.89;10.95;100844.53;6312308;27;97136;-70
2022/03/22 10:44:14;;;;;;;;;47.75;38.00;;;;;30.90;10.53;100847.03;6280277;27;97007;-70
2022/03/22 10:47:25;;;;;;;;;46.50;37.75;;;;;31.16;10.77;100839.00;6312893;27;97537;-70
2022/03/22 10:50:29;;;;;;;;;48.80;39.00;;;;;31.36;10.68;100827.41;6310447;27;97783;-71
2022/03/22 10:53:35;;;;;;;;;44.40;36.40;;;;;31.66;10.45;100834.28;6311410;27;96437;-70
2022/03/22 10:56:46;;;;;;;;;46.20;36.60;;;;;31.87;10.83;100817.84;6315008;27;97455;-70
2022/03/22 10:59:52;;;;;;;;;40.00;34.00;;;;;31.97;10.00;100817.59;6295234;27;97778;-70
2022/03/22 11:02:57;;;;;;;;;42.00;34.00;;;;;31.98;10.06;100815.63;6295976;27;97151;-70
2022/03/22 11:06:03;;;;;;;;;46.50;37.50;;;;;31.93;10.53;100816.59;6293522;27;97641;-69
2022/03/22 11:09:08;;;;;;;;;42.20;33.20;;;;;32.21;10.24;100820.06;6304866;27;97150;-70
2022/03/22 11:12:12;;;;;;;;;38.00;33.00;;;;;32.10;9.97;100813.97;6311570;27;97516;-70
2022/03/22 11:15:16;;;;;;;;;39.00;32.00;;;;;31.63;10.26;100804.22;6314456;27;97477;-70
2022/03/22 11:18:21;;;;;;;;;39.40;33.00;;;;;31.76;10.19;100803.34;6315109;27;96741;-70
2022/03/22 11:21:27;;;;;;;;;41.80;33.00;;;;;31.95;10.24;100783.63;6313357;27;96369;-70
2022/03/22 11:24:32;;;;;;;;;42.75;35.00;;;;;31.98;10.45;100793.31;6292692;27;98589;-69
2022/03/22 11:27:35;;;;;;;;;42.60;35.00;;;;;32.20;10.09;100799.75;6309624;27;97617;-70
2022/03/22 11:30:40;;;;;;;;;39.60;33.60;;;;;32.27;10.19;100787.28;6312840;27;96975;-69
2022/03/22 11:37:07;;;;;;;;;38.60;32.00;;;;;32.51;9.96;100780.16;6314068;27;98051;-71
2022/03/22 11:43:45;;;;;;;;;38.60;32.40;;;;;32.90;9.94;100767.34;6313191;27;97157;-71
2022/03/22 11:47:05;;;;;;;;;37.00;32.00;;;;;32.73;9.71;100759.75;6314340;27;97253;-71
2022/03/22 11:50:11;;;;;;;;;31.40;28.40;;;;;32.46;9.51;100763.56;6315036;27;96423;-70
2022/03/22 11:53:19;;;;;;;;;33.00;29.80;;;;;31.94;10.58;100759.66;6313365;27;97496;-71
2022/03/22 11:56:28;;;;;;;;;37.00;32.00;;;;;32.10;10.38;100746.13;6271001;27;97497;-71
2022/03/22 11:59:41;;;;;;;;;33.75;27.00;;;;;31.45;9.97;100746.63;6268358;27;98325;-70
2022/03/22 12:02:51;;;;;;;;;29.60;25.60;;;;;30.83;10.70;100754.72;6307568;27;97645;-69
2022/03/22 12:05:55;;;;;;;;;29.00;26.00;;;;;30.56;11.18;100746.38;6292144;27;96677;-70
2022/03/22 12:08:59;;;;;;;;;29.80;28.00;;;;;30.76;11.27;100740.38;6296056;27;98471;-69
2022/03/22 12:12:06;;;;;;;;;37.50;32.00;;;;;31.04;10.91;100732.00;6314755;27;97614;-71
2022/03/22 12:15:12;;;;;;;;;31.00;29.75;;;;;31.48;10.99;100734.84;6295628;27;96872;-71
2022/03/22 12:18:15;;;;;;;;;27.00;25.00;;;;;31.17;10.31;100722.78;6316087;27;97370;-70
2022/03/22 12:21:21;;;;;;;;;27.00;23.50;;;;;30.79;10.79;100719.47;6314211;27;97484;-70
2022/03/22 12:24:27;;;;;;;;;33.50;30.00;;;;;30.61;11.23;100714.81;6314055;27;96443;-70
2022/03/22 12:27:37;;;;;;;;;33.25;30.00;;;;;30.46;11.31;100708.44;6314109;27;98067;-70
2022/03/22 12:30:42;;;;;;;;;31.25;28.25;;;;;30.27;11.74;100682.63;6294196;27;96800;-70
2022/03/22 12:33:45;;;;;;;;;25.00;23.60;;;;;30.58;11.24;100709.88;6294540;27;97592;-69
2022/03/22 12:36:48;;;;;;;;;26.00;22.60;;;;;30.86;10.73;100697.56;6313716;27;98136;-69
2022/03/22 12:39:52;;;;;;;;;29.60;26.80;;;;;30.82;10.56;100690.97;6310758;27;96728;-70
2022/03/22 12:43:04;;;;;;;;;30.60;27.60;;;;;30.99;11.04;100689.16;6284890;27;98354;-70
2022/03/22 12:46:07;;;;;;;;;23.00;21.00;;;;;31.01;10.99;100660.16;6252272;27;96611;-70
2022/03/22 12:49:11;;;;;;;;;26.00;24.00;;;;;30.98;11.08;100681.94;6262730;27;99578;-69
2022/03/22 12:52:15;;;;;;;;;25.00;23.00;;;;;30.96;11.29;100681.44;6293343;27;96761;-70
2022/03/22 12:55:20;;;;;;;;;26.60;24.60;;;;;31.06;11.04;100671.22;6311314;27;96492;-69
2022/03/22 12:58:29;;;;;;;;;23.00;22.00;;;;;31.05;11.26;100672.34;6312827;27;97436;-70
2022/03/22 13:01:41;;;;;;;;;28.00;25.00;;;;;31.11;11.03;100673.91;6276642;27;97995;-68
2022/03/22 13:04:47;;;;;;;;;28.00;23.80;;;;;31.27;11.15;100664.03;6311618;27;97471;-69
2022/03/22 13:07:51;;;;;;;;;22.80;21.20;;;;;31.38;10.54;100665.41;6312742;27;97949;-68
2022/03/22 13:17:43;;;;;;;;;18.25;17.25;;;;;31.37;10.34;100653.44;6294248;27;98024;-69
2022/03/22 13:20:47;;;;;;;;;17.40;15.20;;;;;31.24;10.65;100648.75;6317135;27;96786;-69
2022/03/22 13:24:07;;;;;;;;;18.50;16.50;;;;;31.02;10.46;100650.72;6318075;27;96654;-70
2022/03/22 13:27:13;;;;;;;;;18.60;17.00;;;;;30.59;11.38;100648.34;6289840;27;99175;-69
2022/03/22 13:30:20;;;;;;;;;20.40;17.40;;;;;30.58;10.98;100649.47;6308756;27;96886;-70
2022/03/22 13:33:33;;;;;;;;;19.20;17.60;;;;;30.58;11.33;100643.91;6297254;27;97821;-70
2022/03/22 13:36:36;;;;;;;;;20.00;16.40;;;;;30.55;10.93;100641.72;6293779;27;96581;-68
2022/03/22 13:39:42;;;;;;;;;10.00;9.00;;;;;29.41;9.83;100613.91;6255503;27;97863;-69
2022/03/22 13:42:57;;;;;;;;;11.50;10.00;;;;;29.11;10.70;100629.94;6290899;27;97447;-69
2022/03/22 13:46:02;;;;;;;;;13.00;10.00;;;;;29.02;11.30;100633.72;6287065;27;97422;-69
2022/03/22 13:49:07;;;;;;;;;12.60;11.60;;;;;28.36;10.84;100631.84;6295648;27;96332;-69
2022/03/22 13:52:10;;;;;;;;;13.00;13.00;;;;;28.22;11.54;100631.75;6295940;27;97266;-69
2022/03/22 13:55:16;;;;;;;;;17.00;15.00;;;;;28.33;12.34;100624.94;6293210;27;98187;-69
2022/03/22 13:58:23;;;;;;;;;15.50;14.00;;;;;28.44;12.03;100625.66;6295107;27;96690;-69
2022/03/22 14:01:28;;;;;;;;;14.50;13.50;;;;;28.64;11.86;100622.56;6315469;27;96585;-70
2022/03/22 14:04:34;;;;;;;;;17.00;14.60;;;;;28.76;12.36;100616.59;6295354;27;100065;-70
2022/03/22 14:07:37;;;;;;;;;16.60;16.00;;;;;28.89;12.13;100612.25;6313817;27;97222;-70
2022/03/22 14:10:43;;;;;;;;;18.00;16.00;;;;;29.04;11.72;100612.00;6297430;27;97200;-69
2022/03/22 14:13:47;;;;;;;;;18.40;18.00;;;;;29.24;12.13;100608.88;6290036;27;97384;-69
2022/03/22 14:16:51;;;;;;;;;16.00;14.00;;;;;29.38;11.92;100607.00;6283095;27;98662;-70
2022/03/22 14:19:55;;;;;;;;;16.75;14.75;;;;;29.52;11.68;100596.72;6288215;27;97771;-70
2022/03/22 14:22:59;;;;;;;;;19.00;17.00;;;;;29.62;11.75;100604.06;6292293;27;99006;-70
2022/03/22 14:26:06;;;;;;;;;17.25;15.00;;;;;29.57;11.72;100606.94;6316331;27;97534;-70
2022/03/22 14:29:09;;;;;;;;;17.00;15.00;;;;;29.52;11.53;100604.25;6297232;27;96635;-70
2022/03/22 14:32:13;;;;;;;;;19.00;17.60;;;;;29.40;11.86;100593.63;6296119;27;97548;-70
2022/03/22 14:38:45;;;;;;;;;20.00;18.40;;;;;29.42;11.65;100602.47;6313387;27;96784;-70
2022/03/22 14:41:48;;;;;;;;;19.00;17.40;;;;;29.27;11.45;100589.66;6315344;27;97582;-70
2022/03/22 14:44:52;;;;;;;;;22.50;19.50;;;;;29.13;11.71;100591.56;6278027;27;99704;-70
2022/03/22 14:47:57;;;;;;;;;18.00;17.00;;;;;28.94;11.84;100571.34;6254979;27;98519;-69
2022/03/22 14:51:00;;;;;;;;;18.40;17.00;;;;;29.02;11.85;100584.56;6298548;27;97501;-69